Schedule Details

Flight Number: ASX300X
Departure: Frankfurt am Main (EDDF) at 09:00Z
Arrival: Gdansk im. Lecha Walesy (EPGD) at 11:00Z

Weather Information
EDDF 180650Z 09004KT 6000 NSC M04/M05 Q1028 R88/15//95 TEMPO 4000 BR
EPGD 180630Z 29002KT 8000 SCT041 M03/M04 Q1026

Schedule Frequency

Route Map